Time;durP1;ratioP1;P1;durP2;ratioP2;P2;SDS_P1;SDS_P2;PMS_P1;PMS_P2;Temp;Humidity;BMP_temperature;BMP_pressure;BME280_temperature;BME280_humidity;BME280_pressure;Samples;Min_cycle;Max_cycle;Signal;HPM_P1;HPM_P2
2024/01/30 00:00:54;;;;;;;13.60;7.73;;;;;;;;;;5051066;28;20776;-82
2024/01/30 00:03:21;;;;;;;11.20;8.53;;;;;;;;;;5051903;28;20222;-83
2024/01/30 00:05:48;;;;;;;11.00;7.67;;;;;;;;;;5051371;28;20645;-82
2024/01/30 00:08:15;;;;;;;11.13;7.47;;;;;;;;;;5052001;28;20235;-82
2024/01/30 00:10:44;;;;;;;10.03;7.07;;;;;;;;;;5051242;28;20240;-82
2024/01/30 00:13:11;;;;;;;11.00;7.67;;;;;;;;;;5051576;28;20216;-82
2024/01/30 00:15:38;;;;;;;12.50;8.27;;;;;;;;;;5051423;28;20243;-82
2024/01/30 00:18:04;;;;;;;9.60;7.03;;;;;;;;;;5051968;28;20263;-83
2024/01/30 00:20:31;;;;;;;8.60;7.53;;;;;;;;;;5051175;28;20232;-83
2024/01/30 00:22:58;;;;;;;11.80;8.00;;;;;;;;;;5051753;28;20237;-82
2024/01/30 00:25:25;;;;;;;11.47;7.63;;;;;;;;;;5051203;28;20242;-82
2024/01/30 00:27:53;;;;;;;13.93;7.50;;;;;;;;;;5051802;28;20251;-83
2024/01/30 00:30:21;;;;;;;21.33;8.60;;;;;;;;;;5050851;28;20236;-82
2024/01/30 00:32:48;;;;;;;11.33;7.60;;;;;;;;;;5046367;28;20227;-82
2024/01/30 00:35:15;;;;;;;8.67;7.77;;;;;;;;;;5051553;28;20212;-82
2024/01/30 00:37:42;;;;;;;10.93;9.07;;;;;;;;;;5051472;28;20205;-82
2024/01/30 00:40:15;;;;;;;10.80;7.87;;;;;;;;;;5050686;28;20203;-82
2024/01/30 00:42:42;;;;;;;9.33;7.67;;;;;;;;;;5051807;28;20272;-83
2024/01/30 00:45:14;;;;;;;10.87;8.40;;;;;;;;;;5051288;28;20213;-82
2024/01/30 00:47:41;;;;;;;11.23;7.50;;;;;;;;;;5054109;28;20227;-82
2024/01/30 00:50:09;;;;;;;10.03;7.27;;;;;;;;;;5054768;28;20212;-82
2024/01/30 00:52:36;;;;;;;9.33;7.37;;;;;;;;;;5055708;28;20284;-82
2024/01/30 00:55:03;;;;;;;7.93;6.87;;;;;;;;;;5055015;28;20210;-84
2024/01/30 00:57:30;;;;;;;11.47;7.53;;;;;;;;;;5055742;28;20204;-82
2024/01/30 00:59:57;;;;;;;8.70;7.70;;;;;;;;;;5054331;28;20595;-82
2024/01/30 01:02:26;;;;;;;9.17;6.63;;;;;;;;;;5054538;28;20301;-82
2024/01/30 01:04:53;;;;;;;8.80;7.03;;;;;;;;;;5055105;28;20209;-82
2024/01/30 01:07:20;;;;;;;8.23;7.37;;;;;;;;;;5054650;28;20718;-82
2024/01/30 01:09:47;;;;;;;11.07;8.40;;;;;;;;;;5055240;28;20609;-81
2024/01/30 01:12:14;;;;;;;11.03;7.03;;;;;;;;;;5054486;28;20707;-82
2024/01/30 01:14:41;;;;;;;9.57;7.67;;;;;;;;;;5055221;28;20218;-82
2024/01/30 01:17:08;;;;;;;11.07;7.67;;;;;;;;;;5054247;28;20232;-82
2024/01/30 01:19:37;;;;;;;10.90;8.20;;;;;;;;;;5054346;28;20218;-82
2024/01/30 01:22:04;;;;;;;15.43;9.00;;;;;;;;;;5054274;28;20698;-82
2024/01/30 01:24:32;;;;;;;14.13;10.00;;;;;;;;;;5054600;28;20637;-81
2024/01/30 01:26:59;;;;;;;19.20;10.43;;;;;;;;;;5054183;28;20644;-82
2024/01/30 01:29:28;;;;;;;10.67;8.77;;;;;;;;;;5054451;28;20235;-82
2024/01/30 01:31:55;;;;;;;11.60;8.37;;;;;;;;;;5053988;28;20255;-82
2024/01/30 01:34:23;;;;;;;11.40;8.83;;;;;;;;;;5054807;28;20199;-82
2024/01/30 01:36:55;;;;;;;14.50;9.17;;;;;;;;;;5049833;28;20244;-81
2024/01/30 01:39:22;;;;;;;12.20;9.33;;;;;;;;;;5053442;28;20197;-82
2024/01/30 01:41:49;;;;;;;12.20;8.57;;;;;;;;;;5045693;28;20230;-82
2024/01/30 01:44:16;;;;;;;12.07;7.57;;;;;;;;;;5046208;28;20201;-81
2024/01/30 01:46:44;;;;;;;10.50;7.60;;;;;;;;;;5053926;28;20244;-81
2024/01/30 01:49:11;;;;;;;19.23;8.47;;;;;;;;;;5054139;28;20229;-81
2024/01/30 01:51:39;;;;;;;13.07;7.87;;;;;;;;;;5053896;28;20241;-82
2024/01/30 01:54:08;;;;;;;10.73;7.90;;;;;;;;;;5054839;28;20557;-82
2024/01/30 01:56:35;;;;;;;11.43;8.50;;;;;;;;;;5047993;28;20232;-81
2024/01/30 01:59:06;;;;;;;10.53;8.13;;;;;;;;;;5053141;28;20616;-81
2024/01/30 02:01:34;;;;;;;12.27;8.40;;;;;;;;;;5053546;28;20233;-81
2024/01/30 02:04:01;;;;;;;10.77;7.43;;;;;;;;;;5053951;28;20244;-82
2024/01/30 02:06:28;;;;;;;11.70;8.10;;;;;;;;;;5053439;28;20239;-81
2024/01/30 02:08:55;;;;;;;10.80;8.67;;;;;;;;;;5051869;28;20228;-82
2024/01/30 02:11:24;;;;;;;11.80;7.67;;;;;;;;;;5053134;28;20232;-82
2024/01/30 02:13:51;;;;;;;10.50;7.07;;;;;;;;;;5053827;28;20231;-82
2024/01/30 02:16:18;;;;;;;9.53;7.83;;;;;;;;;;5053184;28;20234;-81
2024/01/30 02:18:47;;;;;;;12.33;7.40;;;;;;;;;;5053779;28;20208;-82
2024/01/30 02:21:16;;;;;;;11.63;7.80;;;;;;;;;;5052935;28;21209;-82
2024/01/30 02:23:44;;;;;;;12.00;8.50;;;;;;;;;;5053833;28;20215;-81
2024/01/30 02:26:12;;;;;;;7.93;7.10;;;;;;;;;;5053172;28;20290;-82
2024/01/30 02:28:39;;;;;;;14.13;8.20;;;;;;;;;;5053588;28;20222;-81
2024/01/30 02:31:06;;;;;;;13.13;8.17;;;;;;;;;;5052691;28;20230;-81
2024/01/30 02:33:33;;;;;;;12.83;8.03;;;;;;;;;;5053704;28;20209;-81
2024/01/30 02:36:00;;;;;;;12.07;7.83;;;;;;;;;;5052942;28;20236;-81
2024/01/30 02:38:29;;;;;;;13.53;7.87;;;;;;;;;;5053560;28;20203;-81
2024/01/30 02:40:56;;;;;;;13.03;8.33;;;;;;;;;;5052682;28;20236;-81
2024/01/30 02:43:23;;;;;;;12.73;8.60;;;;;;;;;;5053430;28;20274;-81
2024/01/30 02:45:50;;;;;;;9.83;7.70;;;;;;;;;;5044534;28;20243;-81
2024/01/30 02:48:17;;;;;;;13.80;8.20;;;;;;;;;;5052892;28;20636;-81
2024/01/30 02:50:45;;;;;;;9.60;7.67;;;;;;;;;;5045774;28;20612;-82
2024/01/30 02:53:12;;;;;;;12.47;8.17;;;;;;;;;;5046837;28;20239;-81
2024/01/30 02:55:41;;;;;;;10.70;7.97;;;;;;;;;;5052645;28;20228;-81
2024/01/30 02:58:08;;;;;;;9.93;7.43;;;;;;;;;;5052783;28;20213;-81
2024/01/30 03:00:35;;;;;;;12.03;8.30;;;;;;;;;;5052152;28;20242;-81
2024/01/30 03:03:02;;;;;;;12.40;8.67;;;;;;;;;;5047327;28;20225;-82
2024/01/30 03:05:29;;;;;;;9.40;8.13;;;;;;;;;;5052553;28;20286;-82
2024/01/30 03:07:56;;;;;;;8.70;7.17;;;;;;;;;;5052812;28;20672;-82
2024/01/30 03:10:24;;;;;;;10.93;7.37;;;;;;;;;;5043097;28;20236;-82
2024/01/30 03:12:52;;;;;;;12.10;8.13;;;;;;;;;;5052888;28;20225;-82
2024/01/30 03:15:19;;;;;;;12.17;8.30;;;;;;;;;;5052528;28;20213;-82
2024/01/30 03:17:46;;;;;;;10.47;8.10;;;;;;;;;;5049513;28;20684;-81
2024/01/30 03:20:13;;;;;;;11.40;7.50;;;;;;;;;;5053105;28;20218;-81
2024/01/30 03:22:40;;;;;;;10.80;7.60;;;;;;;;;;5054263;28;20283;-80
2024/01/30 03:25:07;;;;;;;14.10;9.17;;;;;;;;;;5053475;28;20212;-81
2024/01/30 03:27:34;;;;;;;8.80;7.67;;;;;;;;;;5053064;28;20295;-80
2024/01/30 03:30:03;;;;;;;10.83;8.47;;;;;;;;;;5052334;28;20215;-82
2024/01/30 03:32:30;;;;;;;10.40;8.17;;;;;;;;;;5051981;28;20277;-81
2024/01/30 03:34:58;;;;;;;11.57;7.93;;;;;;;;;;5052575;28;20222;-82
2024/01/30 03:37:25;;;;;;;12.90;7.83;;;;;;;;;;5043586;28;20230;-81
2024/01/30 03:39:52;;;;;;;10.40;7.63;;;;;;;;;;5052423;28;20251;-81
2024/01/30 03:42:19;;;;;;;11.13;8.07;;;;;;;;;;5040575;28;20247;-82
2024/01/30 03:44:46;;;;;;;11.43;8.17;;;;;;;;;;5047282;28;20215;-82
2024/01/30 03:47:14;;;;;;;8.13;6.57;;;;;;;;;;5041200;28;20231;-81
2024/01/30 03:49:41;;;;;;;14.23;8.23;;;;;;;;;;5052112;28;20230;-81
2024/01/30 03:52:09;;;;;;;15.70;8.87;;;;;;;;;;5051560;28;20236;-81
2024/01/30 03:54:36;;;;;;;8.80;7.77;;;;;;;;;;5043851;28;20207;-82
2024/01/30 03:57:03;;;;;;;10.43;7.77;;;;;;;;;;5042954;28;20232;-81
2024/01/30 03:59:30;;;;;;;10.27;7.07;;;;;;;;;;5051799;28;20208;-81
2024/01/30 04:01:57;;;;;;;11.13;8.27;;;;;;;;;;5051587;28;20235;-81
2024/01/30 04:04:25;;;;;;;9.83;7.40;;;;;;;;;;5048029;28;20228;-81
2024/01/30 04:06:52;;;;;;;10.27;8.30;;;;;;;;;;5051311;28;20276;-81
2024/01/30 04:09:19;;;;;;;11.67;7.73;;;;;;;;;;5050235;28;20243;-81
2024/01/30 04:11:46;;;;;;;10.33;8.03;;;;;;;;;;5051166;28;20740;-81
2024/01/30 04:14:13;;;;;;;9.20;7.87;;;;;;;;;;5051673;28;20208;-82
2024/01/30 04:16:40;;;;;;;10.30;8.40;;;;;;;;;;5050436;28;20234;-82
2024/01/30 04:19:07;;;;;;;10.43;7.07;;;;;;;;;;5050314;28;20710;-82
2024/01/30 04:21:36;;;;;;;9.83;7.50;;;;;;;;;;5039211;28;20350;-82
2024/01/30 04:24:03;;;;;;;8.93;7.67;;;;;;;;;;5048645;28;20217;-82
2024/01/30 04:26:30;;;;;;;11.10;7.87;;;;;;;;;;5050921;28;20723;-82
2024/01/30 04:28:57;;;;;;;14.33;8.93;;;;;;;;;;5051740;28;20235;-81
2024/01/30 04:31:24;;;;;;;10.13;8.60;;;;;;;;;;5042582;28;20234;-81
2024/01/30 04:33:51;;;;;;;17.40;9.27;;;;;;;;;;5047073;28;20221;-82
2024/01/30 04:36:18;;;;;;;11.87;9.07;;;;;;;;;;5050991;28;20280;-81
2024/01/30 04:38:46;;;;;;;11.50;8.93;;;;;;;;;;5051386;28;20211;-82
2024/01/30 04:41:13;;;;;;;11.77;9.27;;;;;;;;;;5050655;28;20249;-82
2024/01/30 04:43:40;;;;;;;10.63;9.33;;;;;;;;;;5051541;28;20624;-81
2024/01/30 04:46:08;;;;;;;13.77;10.17;;;;;;;;;;5050098;28;20234;-82
2024/01/30 04:48:35;;;;;;;12.57;8.77;;;;;;;;;;5039909;28;20286;-80
2024/01/30 04:51:02;;;;;;;13.80;8.57;;;;;;;;;;5047386;28;20234;-82
2024/01/30 04:53:31;;;;;;;10.83;8.33;;;;;;;;;;5051557;28;20311;-82
2024/01/30 04:55:59;;;;;;;12.47;9.00;;;;;;;;;;5051079;28;20235;-81
2024/01/30 04:58:26;;;;;;;10.37;8.23;;;;;;;;;;5051523;28;20261;-82
2024/01/30 05:00:53;;;;;;;12.07;9.13;;;;;;;;;;5042523;28;20770;-81
2024/01/30 05:03:22;;;;;;;9.23;8.33;;;;;;;;;;5042860;28;20696;-82
2024/01/30 05:05:49;;;;;;;12.50;7.73;;;;;;;;;;5051055;28;20291;-82
2024/01/30 05:08:16;;;;;;;15.00;9.33;;;;;;;;;;5051124;28;20205;-82
2024/01/30 05:10:43;;;;;;;10.33;8.77;;;;;;;;;;5050682;28;20247;-82
2024/01/30 05:13:13;;;;;;;16.77;9.93;;;;;;;;;;5051085;28;20222;-82
2024/01/30 05:15:40;;;;;;;15.10;9.23;;;;;;;;;;5045800;28;20253;-81
2024/01/30 05:18:07;;;;;;;12.83;9.07;;;;;;;;;;5042831;28;20256;-81
2024/01/30 05:20:34;;;;;;;8.77;7.80;;;;;;;;;;5050291;28;20230;-79
2024/01/30 05:23:01;;;;;;;12.87;7.97;;;;;;;;;;5050961;28;20227;-80
2024/01/30 05:25:28;;;;;;;12.40;8.67;;;;;;;;;;5050074;28;20261;-80
2024/01/30 05:27:56;;;;;;;10.83;8.33;;;;;;;;;;5049917;28;20281;-79
2024/01/30 05:30:24;;;;;;;10.40;8.17;;;;;;;;;;5050189;28;20313;-81
2024/01/30 05:32:52;;;;;;;11.27;7.97;;;;;;;;;;5051118;28;20641;-82
2024/01/30 05:35:20;;;;;;;10.77;8.23;;;;;;;;;;5043894;28;20210;-80
2024/01/30 05:37:49;;;;;;;11.53;8.40;;;;;;;;;;5048819;28;20207;-81
2024/01/30 05:40:17;;;;;;;12.70;9.03;;;;;;;;;;5052173;28;20222;-80
2024/01/30 05:42:44;;;;;;;9.03;7.73;;;;;;;;;;5048048;28;20234;-80
2024/01/30 05:45:11;;;;;;;12.87;8.50;;;;;;;;;;5053681;28;20214;-80
2024/01/30 05:47:39;;;;;;;15.03;8.47;;;;;;;;;;5054268;28;20208;-80
2024/01/30 05:50:07;;;;;;;12.17;8.13;;;;;;;;;;5053418;28;20222;-81
2024/01/30 05:52:34;;;;;;;11.40;8.30;;;;;;;;;;5050009;28;20633;-80
2024/01/30 05:55:01;;;;;;;13.90;8.40;;;;;;;;;;5051314;28;20211;-80
2024/01/30 05:57:28;;;;;;;12.33;8.57;;;;;;;;;;5054298;28;20313;-80
2024/01/30 05:59:55;;;;;;;12.07;8.40;;;;;;;;;;5054256;28;20207;-80
2024/01/30 06:02:22;;;;;;;10.50;8.17;;;;;;;;;;5053328;28;20234;-80
2024/01/30 06:04:51;;;;;;;12.53;7.77;;;;;;;;;;5048828;28;20634;-80
2024/01/30 06:07:18;;;;;;;15.00;8.60;;;;;;;;;;5053616;28;20283;-80
2024/01/30 06:09:46;;;;;;;9.40;7.17;;;;;;;;;;5048789;28;20292;-80
2024/01/30 06:12:13;;;;;;;11.33;8.67;;;;;;;;;;5042527;28;20236;-78
2024/01/30 06:14:42;;;;;;;11.87;8.80;;;;;;;;;;5046175;28;20218;-78
2024/01/30 06:17:09;;;;;;;10.53;8.23;;;;;;;;;;5051342;28;20771;-78
2024/01/30 06:19:36;;;;;;;9.70;7.70;;;;;;;;;;5053612;28;20217;-74
2024/01/30 06:22:08;;;;;;;12.27;9.27;;;;;;;;;;5053021;28;20265;-78
2024/01/30 06:24:35;;;;;;;10.97;8.17;;;;;;;;;;5045639;28;20273;-78
2024/01/30 06:27:02;;;;;;;10.43;7.97;;;;;;;;;;5045602;28;20245;-78
2024/01/30 06:29:29;;;;;;;14.83;8.20;;;;;;;;;;5052574;28;20227;-78
2024/01/30 06:31:57;;;;;;;12.80;8.63;;;;;;;;;;5053066;28;20231;-78
2024/01/30 06:34:24;;;;;;;13.63;8.80;;;;;;;;;;5053413;28;20229;-78
2024/01/30 06:36:51;;;;;;;14.53;8.37;;;;;;;;;;5052905;28;20697;-78
2024/01/30 06:39:19;;;;;;;14.30;7.80;;;;;;;;;;5052942;28;20206;-78
2024/01/30 06:41:47;;;;;;;13.40;8.80;;;;;;;;;;5052908;28;20309;-78
2024/01/30 06:44:14;;;;;;;13.67;8.83;;;;;;;;;;5052916;28;20662;-78
2024/01/30 06:46:41;;;;;;;13.90;9.23;;;;;;;;;;5052802;28;20737;-78
2024/01/30 06:49:08;;;;;;;15.20;9.43;;;;;;;;;;5052801;28;20206;-79
2024/01/30 06:51:35;;;;;;;11.93;8.77;;;;;;;;;;5052202;28;20230;-77
2024/01/30 06:54:02;;;;;;;8.83;7.93;;;;;;;;;;5053101;28;20206;-78
2024/01/30 06:56:31;;;;;;;10.90;8.43;;;;;;;;;;5052206;28;20736;-79
2024/01/30 06:58:59;;;;;;;14.90;9.80;;;;;;;;;;5053039;28;20289;-79
2024/01/30 07:01:29;;;;;;;13.13;8.77;;;;;;;;;;5052112;28;20258;-79
2024/01/30 07:03:56;;;;;;;14.50;8.47;;;;;;;;;;5053013;28;20230;-79
2024/01/30 07:06:23;;;;;;;14.53;9.27;;;;;;;;;;5051985;28;20268;-79
2024/01/30 07:08:50;;;;;;;13.17;9.63;;;;;;;;;;5052447;28;20320;-79
2024/01/30 07:11:21;;;;;;;15.10;9.23;;;;;;;;;;5051538;28;20707;-78
2024/01/30 07:13:50;;;;;;;15.87;8.53;;;;;;;;;;5052933;28;20202;-78
2024/01/30 07:16:17;;;;;;;15.33;9.97;;;;;;;;;;5052151;28;20226;-78
2024/01/30 07:18:44;;;;;;;15.33;9.40;;;;;;;;;;5052598;28;20203;-80
2024/01/30 07:21:12;;;;;;;11.37;8.60;;;;;;;;;;5051615;28;20241;-80
2024/01/30 07:23:39;;;;;;;13.93;8.90;;;;;;;;;;5052439;28;20234;-80
2024/01/30 07:26:06;;;;;;;12.63;9.73;;;;;;;;;;5051355;28;20254;-80
2024/01/30 07:28:33;;;;;;;13.37;9.70;;;;;;;;;;5052099;28;20252;-80
2024/01/30 07:31:02;;;;;;;16.30;10.30;;;;;;;;;;5051393;28;20256;-80
2024/01/30 07:33:29;;;;;;;10.03;8.07;;;;;;;;;;5051934;28;20234;-79
2024/01/30 07:35:56;;;;;;;13.83;9.43;;;;;;;;;;5049497;28;20221;-82
2024/01/30 07:38:23;;;;;;;12.57;10.00;;;;;;;;;;5051449;28;20289;-79
2024/01/30 07:40:50;;;;;;;14.67;9.73;;;;;;;;;;5052393;28;20631;-77
2024/01/30 07:43:17;;;;;;;10.73;9.30;;;;;;;;;;5052006;28;20227;-79
2024/01/30 07:45:44;;;;;;;12.73;9.07;;;;;;;;;;5051618;28;20227;-79
2024/01/30 07:48:13;;;;;;;16.07;10.33;;;;;;;;;;5050213;28;20207;-78
2024/01/30 07:50:41;;;;;;;14.03;9.27;;;;;;;;;;5051176;28;20261;-78
2024/01/30 07:53:08;;;;;;;17.97;9.80;;;;;;;;;;5049685;28;20218;-79
2024/01/30 07:55:35;;;;;;;16.00;10.00;;;;;;;;;;5051059;28;20222;-78
2024/01/30 07:58:03;;;;;;;15.13;10.13;;;;;;;;;;5051417;28;20219;-78
2024/01/30 08:00:30;;;;;;;16.47;9.37;;;;;;;;;;5050887;28;20233;-78
2024/01/30 08:02:58;;;;;;;11.77;9.17;;;;;;;;;;5051568;28;20227;-79
2024/01/30 08:05:26;;;;;;;16.40;9.83;;;;;;;;;;5051193;28;20232;-79
2024/01/30 08:07:54;;;;;;;14.57;9.80;;;;;;;;;;5051891;28;20565;-79
2024/01/30 08:10:21;;;;;;;16.13;9.97;;;;;;;;;;5050751;28;20215;-79
2024/01/30 08:12:48;;;;;;;11.80;9.60;;;;;;;;;;5051708;28;20231;-80
2024/01/30 08:15:15;;;;;;;19.57;11.00;;;;;;;;;;5051125;28;20202;-80
2024/01/30 08:17:44;;;;;;;24.23;11.33;;;;;;;;;;5051812;28;20202;-79
2024/01/30 08:20:12;;;;;;;14.53;10.63;;;;;;;;;;5050855;28;20665;-79
2024/01/30 08:22:41;;;;;;;15.90;11.70;;;;;;;;;;5051551;28;20228;-79
2024/01/30 08:25:09;;;;;;;17.77;12.37;;;;;;;;;;5050891;28;20208;-80
2024/01/30 08:27:38;;;;;;;17.30;11.77;;;;;;;;;;5051268;28;20214;-79
2024/01/30 08:30:05;;;;;;;17.87;12.10;;;;;;;;;;5050905;28;20270;-80
2024/01/30 08:32:33;;;;;;;18.70;13.17;;;;;;;;;;5041489;28;20233;-80
2024/01/30 08:35:03;;;;;;;25.00;14.50;;;;;;;;;;5051158;28;20724;-79
2024/01/30 08:37:30;;;;;;;25.63;15.63;;;;;;;;;;5031174;28;20230;-80
2024/01/30 08:39:58;;;;;;;26.13;15.07;;;;;;;;;;5031589;28;20203;-79
2024/01/30 08:42:25;;;;;;;32.10;16.67;;;;;;;;;;5030866;28;20729;-79
2024/01/30 08:44:53;;;;;;;34.40;19.00;;;;;;;;;;5031641;28;20280;-80
2024/01/30 08:47:20;;;;;;;27.80;17.57;;;;;;;;;;5030656;28;20259;-78
2024/01/30 08:49:47;;;;;;;22.70;16.63;;;;;;;;;;5031632;28;20223;-78
2024/01/30 08:52:14;;;;;;;21.33;15.77;;;;;;;;;;5031223;28;20235;-79
2024/01/30 08:54:41;;;;;;;23.17;16.10;;;;;;;;;;5024078;28;20199;-79
2024/01/30 08:57:10;;;;;;;17.33;12.33;;;;;;;;;;5031771;28;20223;-78
2024/01/30 08:59:37;;;;;;;17.27;11.60;;;;;;;;;;5036209;28;20208;-78
2024/01/30 09:02:05;;;;;;;16.17;13.00;;;;;;;;;;5031307;28;20237;-79
2024/01/30 09:04:32;;;;;;;19.33;13.00;;;;;;;;;;5023213;28;20535;-79
2024/01/30 09:07:00;;;;;;;22.73;14.70;;;;;;;;;;5031146;28;20232;-80
2024/01/30 09:09:27;;;;;;;22.73;12.97;;;;;;;;;;5024899;28;20196;-79
2024/01/30 09:11:54;;;;;;;22.17;15.40;;;;;;;;;;5035207;28;20239;-81
2024/01/30 09:14:23;;;;;;;18.07;13.10;;;;;;;;;;5026509;28;20690;-81
2024/01/30 09:16:50;;;;;;;21.90;14.40;;;;;;;;;;5023600;28;20241;-81
2024/01/30 09:19:17;;;;;;;21.23;13.90;;;;;;;;;;5024238;28;20209;-81
2024/01/30 09:21:44;;;;;;;22.63;14.17;;;;;;;;;;5035060;28;20609;-81
2024/01/30 09:24:11;;;;;;;20.00;15.27;;;;;;;;;;5027287;28;20189;-81
2024/01/30 09:26:38;;;;;;;27.40;16.00;;;;;;;;;;5023981;28;20237;-81
2024/01/30 09:29:05;;;;;;;21.97;14.57;;;;;;;;;;5023684;28;20222;-81
2024/01/30 09:31:34;;;;;;;23.97;15.07;;;;;;;;;;5021185;28;20238;-81
2024/01/30 09:34:01;;;;;;;25.70;15.57;;;;;;;;;;5035354;28;20561;-81
2024/01/30 09:36:28;;;;;;;22.53;14.87;;;;;;;;;;5035107;28;20242;-82
2024/01/30 09:38:55;;;;;;;17.53;12.90;;;;;;;;;;5027966;28;20575;-81
2024/01/30 09:41:25;;;;;;;21.00;14.20;;;;;;;;;;5023258;28;20228;-81
2024/01/30 09:43:58;;;;;;;20.50;14.63;;;;;;;;;;5027383;28;20237;-81
2024/01/30 09:46:27;;;;;;;28.50;15.17;;;;;;;;;;5033269;28;20243;-81
2024/01/30 09:48:56;;;;;;;19.80;13.73;;;;;;;;;;5034135;28;20289;-81
2024/01/30 09:51:23;;;;;;;23.10;14.77;;;;;;;;;;5034235;28;20629;-81
2024/01/30 09:53:50;;;;;;;21.53;14.50;;;;;;;;;;5035411;28;20284;-80
2024/01/30 09:56:18;;;;;;;21.43;13.50;;;;;;;;;;5034505;28;20244;-80
2024/01/30 09:58:45;;;;;;;19.17;14.20;;;;;;;;;;5018979;28;20561;-82
2024/01/30 10:01:12;;;;;;;25.43;15.70;;;;;;;;;;5022829;28;20235;-81
2024/01/30 10:03:39;;;;;;;21.43;14.07;;;;;;;;;;5026018;28;20206;-81
2024/01/30 10:06:08;;;;;;;22.53;13.97;;;;;;;;;;5028186;28;20599;-80
2024/01/30 10:08:35;;;;;;;22.63;14.27;;;;;;;;;;5037256;28;20218;-81
2024/01/30 10:11:03;;;;;;;21.13;14.93;;;;;;;;;;5030386;28;20284;-81
2024/01/30 10:13:30;;;;;;;20.63;15.57;;;;;;;;;;5033064;28;20226;-82
2024/01/30 10:15:58;;;;;;;24.63;15.30;;;;;;;;;;5022635;28;20223;-80
2024/01/30 10:18:25;;;;;;;23.90;16.33;;;;;;;;;;5031884;28;20209;-80
2024/01/30 10:20:53;;;;;;;21.83;15.03;;;;;;;;;;5026287;28;20697;-80
2024/01/30 10:23:21;;;;;;;39.57;17.37;;;;;;;;;;5026304;28;20765;-80
2024/01/30 10:25:48;;;;;;;25.50;17.60;;;;;;;;;;5025845;28;20233;-80
2024/01/30 10:28:15;;;;;;;27.27;17.37;;;;;;;;;;5025054;28;20295;-80
2024/01/30 10:30:42;;;;;;;31.27;17.70;;;;;;;;;;5025062;28;20230;-81
2024/01/30 10:33:09;;;;;;;28.00;17.07;;;;;;;;;;5027917;28;20230;-81
2024/01/30 10:35:36;;;;;;;29.03;18.03;;;;;;;;;;5024395;28;20235;-81
2024/01/30 10:38:05;;;;;;;29.53;17.63;;;;;;;;;;5025908;28;20209;-81
2024/01/30 10:40:34;;;;;;;26.63;16.87;;;;;;;;;;5032531;28;20234;-81
2024/01/30 10:43:03;;;;;;;29.70;17.93;;;;;;;;;;5039904;28;20248;-81
2024/01/30 10:45:31;;;;;;;29.00;17.47;;;;;;;;;;5035718;28;20234;-81
2024/01/30 10:48:00;;;;;;;29.70;17.90;;;;;;;;;;5034184;28;20273;-81
2024/01/30 10:50:27;;;;;;;32.63;19.27;;;;;;;;;;5024265;28;20230;-81
2024/01/30 10:52:55;;;;;;;26.50;18.20;;;;;;;;;;5022134;28;20222;-81
2024/01/30 10:55:23;;;;;;;29.03;19.53;;;;;;;;;;5021964;28;20241;-81
2024/01/30 10:57:53;;;;;;;29.90;19.77;;;;;;;;;;5026014;28;20207;-81
2024/01/30 11:00:23;;;;;;;29.70;18.40;;;;;;;;;;5025064;28;20201;-81
2024/01/30 11:02:50;;;;;;;32.50;19.43;;;;;;;;;;5030185;28;20231;-82
2024/01/30 11:05:25;;;;;;;30.53;19.53;;;;;;;;;;5021692;28;20206;-81
2024/01/30 11:07:52;;;;;;;27.33;19.20;;;;;;;;;;5025928;28;20214;-82
2024/01/30 11:10:19;;;;;;;28.87;20.10;;;;;;;;;;5025907;28;20203;-83
2024/01/30 11:12:47;;;;;;;32.10;20.73;;;;;;;;;;5032306;28;20226;-83
2024/01/30 11:15:17;;;;;;;30.03;20.83;;;;;;;;;;5031635;28;20208;-82
2024/01/30 11:17:45;;;;;;;33.80;21.10;;;;;;;;;;5021510;28;20243;-82
2024/01/30 11:20:14;;;;;;;32.27;21.27;;;;;;;;;;5025663;28;20215;-81
2024/01/30 11:22:43;;;;;;;29.63;20.73;;;;;;;;;;5053577;28;20330;-80
2024/01/30 11:25:12;;;;;;;37.37;22.43;;;;;;;;;;5051680;28;20814;-82
2024/01/30 11:27:41;;;;;;;36.77;21.00;;;;;;;;;;5051987;28;20305;-82
2024/01/30 11:30:08;;;;;;;31.77;22.17;;;;;;;;;;5046934;28;20194;-82
2024/01/30 11:32:37;;;;;;;31.47;23.20;;;;;;;;;;5051152;28;20614;-81
2024/01/30 11:35:06;;;;;;;31.53;20.60;;;;;;;;;;5052121;28;20556;-83
2024/01/30 11:37:33;;;;;;;28.33;21.40;;;;;;;;;;5052149;28;20247;-83
2024/01/30 11:40:00;;;;;;;38.93;23.30;;;;;;;;;;5047809;28;20662;-82
2024/01/30 11:42:28;;;;;;;34.27;22.40;;;;;;;;;;5051304;28;20646;-81
2024/01/30 11:44:57;;;;;;;34.13;22.37;;;;;;;;;;5050333;28;20295;-82
2024/01/30 11:47:24;;;;;;;27.03;19.80;;;;;;;;;;5051329;28;20228;-81
2024/01/30 11:49:53;;;;;;;29.37;19.67;;;;;;;;;;5040405;28;20210;-82
2024/01/30 11:52:20;;;;;;;32.27;19.53;;;;;;;;;;5043997;28;20703;-82
2024/01/30 11:54:47;;;;;;;28.97;19.33;;;;;;;;;;5049972;28;20200;-82
2024/01/30 11:57:14;;;;;;;29.53;20.73;;;;;;;;;;5049153;28;20286;-82
2024/01/30 11:59:41;;;;;;;25.13;17.30;;;;;;;;;;5047843;28;20206;-81
2024/01/30 12:02:08;;;;;;;29.47;18.33;;;;;;;;;;5049639;28;20675;-81
2024/01/30 12:04:35;;;;;;;25.20;18.50;;;;;;;;;;5050722;28;20577;-82
2024/01/30 12:07:04;;;;;;;29.83;19.07;;;;;;;;;;5045230;28;20244;-81
2024/01/30 12:09:31;;;;;;;27.97;18.60;;;;;;;;;;5047261;28;20219;-82
2024/01/30 12:11:58;;;;;;;26.33;18.30;;;;;;;;;;5049402;28;20608;-82
2024/01/30 12:14:26;;;;;;;34.10;20.30;;;;;;;;;;5050462;28;20208;-82
2024/01/30 12:16:53;;;;;;;36.33;20.50;;;;;;;;;;5041364;28;20320;-81
2024/01/30 12:19:23;;;;;;;32.37;18.37;;;;;;;;;;5045686;28;20575;-82
2024/01/30 12:21:55;;;;;;;24.30;18.80;;;;;;;;;;5046469;28;20317;-82
2024/01/30 12:24:24;;;;;;;23.97;17.77;;;;;;;;;;5044917;28;20288;-82
2024/01/30 12:26:52;;;;;;;27.97;18.40;;;;;;;;;;5046553;28;20233;-82
2024/01/30 12:29:22;;;;;;;27.40;17.20;;;;;;;;;;5047850;28;20271;-82
2024/01/30 12:31:49;;;;;;;27.07;16.40;;;;;;;;;;5047468;28;20233;-81
2024/01/30 12:34:16;;;;;;;29.67;16.70;;;;;;;;;;5047962;28;20256;-82
2024/01/30 12:36:44;;;;;;;22.63;14.57;;;;;;;;;;5047741;28;20234;-82
2024/01/30 12:39:13;;;;;;;19.33;14.33;;;;;;;;;;5048446;28;20217;-82
2024/01/30 12:41:42;;;;;;;23.03;14.80;;;;;;;;;;5040876;28;20238;-82
2024/01/30 12:44:09;;;;;;;19.70;14.30;;;;;;;;;;5051479;28;20291;-82
2024/01/30 12:46:36;;;;;;;21.03;12.90;;;;;;;;;;5051818;28;20272;-82
2024/01/30 12:49:03;;;;;;;22.10;12.83;;;;;;;;;;5052456;28;20896;-82
2024/01/30 12:51:30;;;;;;;20.57;13.97;;;;;;;;;;5047039;28;20261;-82
2024/01/30 12:53:58;;;;;;;19.07;11.60;;;;;;;;;;5051807;28;20616;-82
2024/01/30 12:56:25;;;;;;;15.67;11.03;;;;;;;;;;5050267;28;20233;-81
2024/01/30 12:58:53;;;;;;;16.93;11.83;;;;;;;;;;5052763;28;20205;-82
2024/01/30 13:01:21;;;;;;;17.10;11.77;;;;;;;;;;5052067;28;20229;-82
2024/01/30 13:03:48;;;;;;;18.10;11.90;;;;;;;;;;5051463;28;20233;-82
2024/01/30 13:06:15;;;;;;;17.27;11.80;;;;;;;;;;5051751;28;20230;-82
2024/01/30 13:08:42;;;;;;;18.77;11.83;;;;;;;;;;5047152;28;20212;-82
2024/01/30 13:11:09;;;;;;;19.40;12.63;;;;;;;;;;5051759;28;20229;-82
2024/01/30 13:13:37;;;;;;;16.80;12.13;;;;;;;;;;5052063;28;20917;-82
2024/01/30 13:16:05;;;;;;;20.17;11.07;;;;;;;;;;5043787;28;20262;-82
2024/01/30 13:18:32;;;;;;;18.53;12.00;;;;;;;;;;5052143;28;20206;-82
2024/01/30 13:20:59;;;;;;;22.47;12.37;;;;;;;;;;5051173;28;20314;-81
2024/01/30 13:23:26;;;;;;;15.90;11.83;;;;;;;;;;5052028;28;20237;-81
2024/01/30 13:25:57;;;;;;;23.57;12.23;;;;;;;;;;5051990;28;20230;-82
2024/01/30 13:28:25;;;;;;;13.90;10.97;;;;;;;;;;5052250;28;20217;-82
2024/01/30 13:30:52;;;;;;;16.50;11.53;;;;;;;;;;5050610;28;20234;-82
2024/01/30 13:33:20;;;;;;;16.83;11.83;;;;;;;;;;5053348;28;20915;-82
2024/01/30 13:35:47;;;;;;;20.17;12.17;;;;;;;;;;5053344;28;20233;-82
2024/01/30 13:38:15;;;;;;;14.33;10.97;;;;;;;;;;5053432;28;20636;-81
2024/01/30 13:40:42;;;;;;;22.00;12.13;;;;;;;;;;5052515;28;20238;-82
2024/01/30 13:43:09;;;;;;;20.27;12.33;;;;;;;;;;5056046;28;20218;-82
2024/01/30 13:45:36;;;;;;;18.83;11.60;;;;;;;;;;5053108;28;20268;-81
2024/01/30 13:48:04;;;;;;;21.33;11.27;;;;;;;;;;5052744;28;20210;-82
2024/01/30 13:50:33;;;;;;;15.23;11.13;;;;;;;;;;5052219;28;20309;-82
2024/01/30 13:53:00;;;;;;;13.93;10.97;;;;;;;;;;5053148;28;20760;-82
2024/01/30 13:55:27;;;;;;;15.10;11.47;;;;;;;;;;5051604;28;20234;-82
2024/01/30 13:57:55;;;;;;;16.93;11.67;;;;;;;;;;5052400;28;20624;-82
2024/01/30 14:00:22;;;;;;;18.13;11.63;;;;;;;;;;5051743;28;20206;-82
2024/01/30 14:02:49;;;;;;;17.97;12.67;;;;;;;;;;5052783;28;20604;-82
2024/01/30 14:05:17;;;;;;;13.03;11.00;;;;;;;;;;5051844;28;20669;-82
2024/01/30 14:07:45;;;;;;;19.03;12.27;;;;;;;;;;5051807;28;20210;-81
2024/01/30 14:10:13;;;;;;;11.17;9.83;;;;;;;;;;5051196;28;20206;-82
2024/01/30 14:12:40;;;;;;;11.40;8.73;;;;;;;;;;5045261;28;20236;-82
2024/01/30 14:15:10;;;;;;;11.93;6.43;;;;;;;;;;5052626;28;20209;-81
2024/01/30 14:17:37;;;;;;;10.20;6.57;;;;;;;;;;5052962;28;20293;-82
2024/01/30 14:20:04;;;;;;;9.10;6.30;;;;;;;;;;5052049;28;20225;-83
2024/01/30 14:22:31;;;;;;;7.47;5.50;;;;;;;;;;5046294;28;20218;-81
2024/01/30 14:25:00;;;;;;;7.40;5.37;;;;;;;;;;5053765;28;20198;-81
2024/01/30 14:27:27;;;;;;;7.63;4.37;;;;;;;;;;5052248;28;20232;-82